createdAt,value
2019-04-20T00:00:40.159Z,101259.59
2019-04-20T00:02:44.046Z,101258.28
2019-04-20T00:04:51.467Z,101257.02
2019-04-20T00:06:59.195Z,101258.81
2019-04-20T00:09:13.978Z,101260.61
2019-04-20T00:11:25.474Z,101259.73
2019-04-20T00:13:38.388Z,101255.83
2019-04-20T00:15:34.618Z,101254.15
2019-04-20T00:17:48.626Z,101247.45
2019-04-20T00:19:53.795Z,101255.28
2019-04-20T00:22:15.652Z,101243.36
2019-04-20T00:24:29.217Z,101245.83
2019-04-20T00:27:04.683Z,101241.27
2019-04-20T00:29:04.473Z,101243.80
2019-04-20T00:31:11.155Z,101241.47
2019-04-20T00:33:09.657Z,101244.52
2019-04-20T00:35:08.264Z,101239.67
2019-04-20T00:37:17.093Z,101234.45
2019-04-20T00:39:23.993Z,101239.20
2019-04-20T00:41:35.153Z,101233.87
2019-04-20T00:43:41.705Z,101236.50
2019-04-20T00:45:57.350Z,101239.08
2019-04-20T00:48:03.431Z,101236.45
2019-04-20T00:50:24.492Z,101227.39
2019-04-20T00:52:44.484Z,101229.19
2019-04-20T00:54:22.213Z,101227.81
2019-04-20T00:56:29.063Z,101230.81
2019-04-20T00:58:50.474Z,101230.27
2019-04-20T01:01:08.292Z,101224.34
2019-04-20T01:03:12.029Z,101221.92
2019-04-20T01:05:19.985Z,101221.37
2019-04-20T01:07:24.232Z,101222.99
2019-04-20T01:09:39.179Z,101226.83
2019-04-20T01:11:48.257Z,101220.97
2019-04-20T01:14:00.173Z,101228.31
2019-04-20T01:16:08.716Z,101220.77
2019-04-20T01:18:14.019Z,101225.50
2019-04-20T01:20:22.674Z,101224.55
2019-04-20T01:22:35.265Z,101215.67
2019-04-20T01:24:43.271Z,101220.81
2019-04-20T01:26:51.638Z,101220.27
2019-04-20T01:29:09.034Z,101218.00
2019-04-20T01:31:15.690Z,101221.89
2019-04-20T01:33:25.873Z,101222.73
2019-04-20T01:35:38.268Z,101217.88
2019-04-20T01:37:39.110Z,101213.45
2019-04-20T01:39:43.470Z,101209.01
2019-04-20T01:41:45.427Z,101200.69
2019-04-20T01:43:52.348Z,101199.37
2019-04-20T01:46:05.066Z,101199.80
2019-04-20T01:48:08.335Z,101200.58
2019-04-20T01:50:21.174Z,101203.45
2019-04-20T01:52:29.881Z,101203.72
2019-04-20T01:54:52.889Z,101203.13
2019-04-20T01:56:54.949Z,101202.64
2019-04-20T01:59:10.180Z,101202.52
2019-04-20T02:01:19.185Z,101205.42
2019-04-20T02:03:43.972Z,101199.92
2019-04-20T02:05:56.487Z,101203.63
2019-04-20T02:07:57.437Z,101197.73
2019-04-20T02:10:11.727Z,101197.06
2019-04-20T02:12:23.597Z,101197.33
2019-04-20T02:14:35.064Z,101197.56
2019-04-20T02:16:39.210Z,101189.06
2019-04-20T02:18:58.925Z,101191.96
2019-04-20T02:21:12.201Z,101196.33
2019-04-20T02:23:10.658Z,101190.23
2019-04-20T02:25:10.295Z,101191.61
2019-04-20T02:27:20.605Z,101189.39
2019-04-20T02:29:46.243Z,101191.61
2019-04-20T02:32:19.919Z,101191.12
2019-04-20T02:40:57.259Z,101194.47
2019-04-20T02:43:09.608Z,101196.36
2019-04-20T02:45:28.594Z,101191.66
2019-04-20T02:47:35.749Z,101189.85
2019-04-20T02:51:42.278Z,101194.88
2019-04-20T02:54:12.984Z,101197.20
2019-04-20T02:55:55.681Z,101191.38
2019-04-20T02:58:03.460Z,101189.05
2019-04-20T03:00:12.512Z,101190.08
2019-04-20T03:02:06.050Z,101194.45
2019-04-20T03:04:02.081Z,101192.81
2019-04-20T03:06:20.736Z,101192.45
2019-04-20T03:08:30.416Z,101189.02
2019-04-20T03:10:52.484Z,101193.48
2019-04-20T03:12:59.723Z,101193.64
2019-04-20T03:14:55.266Z,101185.84
2019-04-20T03:17:18.246Z,101189.89
2019-04-20T03:19:17.457Z,101189.75
2019-04-20T03:21:33.300Z,101193.90
2019-04-20T03:23:42.818Z,101188.36
2019-04-20T03:25:53.328Z,101195.66
2019-04-20T03:28:00.922Z,101196.89
2019-04-20T03:30:22.009Z,101198.16
2019-04-20T03:32:57.921Z,101197.19
2019-04-20T03:34:54.967Z,101199.80
2019-04-20T03:36:42.864Z,101200.70
2019-04-20T03:38:41.483Z,101199.06
2019-04-20T03:40:45.318Z,101198.20
2019-04-20T03:42:40.508Z,101197.86
2019-04-20T03:44:53.816Z,101195.73
2019-04-20T03:47:01.304Z,101193.67
2019-04-20T03:49:22.354Z,101191.20
2019-04-20T03:51:35.903Z,101194.80
2019-04-20T03:53:46.264Z,101192.37
2019-04-20T03:56:00.675Z,101189.00
2019-04-20T03:58:10.780Z,101193.71
2019-04-20T04:00:22.023Z,101196.19
2019-04-20T04:02:54.404Z,101198.20
2019-04-20T04:04:49.444Z,101196.81
2019-04-20T04:06:47.047Z,101202.95
2019-04-20T04:09:02.763Z,101203.00
2019-04-20T04:11:16.256Z,101201.58
2019-04-20T04:13:20.806Z,101195.48
2019-04-20T04:15:27.750Z,101199.28
2019-04-20T04:17:38.915Z,101201.72
2019-04-20T04:19:51.176Z,101199.53
2019-04-20T04:22:07.830Z,101198.20
2019-04-20T04:24:14.348Z,101207.56
2019-04-20T04:26:29.269Z,101203.05
2019-04-20T04:28:31.173Z,101206.52
2019-04-20T04:30:40.550Z,101211.30
2019-04-20T04:33:29.434Z,101209.50
2019-04-20T04:35:04.308Z,101207.26
2019-04-20T04:37:13.215Z,101209.94
2019-04-20T04:39:25.194Z,101203.41
2019-04-20T04:41:36.801Z,101208.30
2019-04-20T04:43:39.786Z,101210.03
2019-04-20T04:45:31.683Z,101199.39
2019-04-20T04:47:38.711Z,101193.47
2019-04-20T04:49:55.227Z,101187.90
2019-04-20T04:52:02.243Z,101177.67
2019-04-20T04:54:13.734Z,101174.87
2019-04-20T04:56:15.171Z,101163.56
2019-04-20T04:58:21.487Z,101162.87
2019-04-20T05:00:32.498Z,101162.30
2019-04-20T05:02:41.872Z,101152.28
2019-04-20T05:05:10.134Z,101157.65
2019-04-20T05:07:11.513Z,101160.07
2019-04-20T05:09:10.385Z,101159.77
2019-04-20T05:11:17.193Z,101158.08
2019-04-20T05:13:26.748Z,101164.81
2019-04-20T05:15:48.446Z,101159.27
2019-04-20T05:18:04.441Z,101164.04
2019-04-20T05:20:12.365Z,101161.30
2019-04-20T05:22:19.356Z,101159.41
2019-04-20T05:24:29.267Z,101157.88
2019-04-20T05:26:49.336Z,101159.19
2019-04-20T05:28:48.573Z,101159.94
2019-04-20T05:30:52.562Z,101146.88
2019-04-20T05:33:03.133Z,101146.51
2019-04-20T05:35:26.940Z,101153.02
2019-04-20T05:37:46.958Z,101145.33
2019-04-20T05:39:45.789Z,101147.62
2019-04-20T05:41:50.397Z,101151.44
2019-04-20T05:43:56.576Z,101150.03
2019-04-20T05:46:03.223Z,101151.39
2019-04-20T05:48:15.554Z,101152.13
2019-04-20T05:50:29.281Z,101147.41
2019-04-20T05:52:44.138Z,101149.95
2019-04-20T05:54:48.982Z,101142.56
2019-04-20T05:57:00.889Z,101136.68
2019-04-20T05:58:59.914Z,101143.95
2019-04-20T06:01:16.144Z,101145.06
2019-04-20T06:03:18.487Z,101142.98
2019-04-20T06:05:27.565Z,101142.69
2019-04-20T06:07:38.020Z,101139.64
2019-04-20T06:09:48.866Z,101139.61
2019-04-20T06:12:07.776Z,101147.17
2019-04-20T06:13:56.941Z,101148.67
2019-04-20T06:16:20.023Z,101144.55
2019-04-20T06:18:29.935Z,101146.46
2019-04-20T06:21:02.323Z,101144.86
2019-04-20T06:22:50.888Z,101147.46
2019-04-20T06:27:21.500Z,101145.84
2019-04-20T06:29:26.328Z,101142.53
2019-04-20T06:31:42.551Z,101144.48
2019-04-20T06:36:43.133Z,101143.58
2019-04-20T06:38:59.820Z,101154.05
2019-04-20T06:41:00.894Z,101157.27
2019-04-20T06:43:05.124Z,101156.94
2019-04-20T06:45:20.074Z,101152.53
2019-04-20T06:47:24.411Z,101152.27
2019-04-20T06:49:33.217Z,101152.11
2019-04-20T06:51:47.428Z,101148.02
2019-04-20T06:53:52.603Z,101147.00
2019-04-20T06:56:17.222Z,101149.31
2019-04-20T06:58:39.574Z,101144.27
2019-04-20T07:00:36.881Z,101146.73
2019-04-20T07:02:44.629Z,101146.14
2019-04-20T07:07:07.054Z,101139.33
2019-04-20T07:09:20.002Z,101140.02
2019-04-20T07:11:18.342Z,101143.09
2019-04-20T07:13:19.303Z,101137.14
2019-04-20T07:15:29.136Z,101140.80
2019-04-20T07:19:56.493Z,101141.23
2019-04-20T07:22:25.069Z,101141.46
2019-04-20T07:24:25.522Z,101158.63
2019-04-20T07:26:35.643Z,101149.58
2019-04-20T07:28:48.530Z,101153.30
2019-04-20T07:30:51.991Z,101145.54
2019-04-20T07:32:59.717Z,101151.13
2019-04-20T07:35:08.459Z,101143.72
2019-04-20T07:37:42.722Z,101146.92
2019-04-20T07:39:37.904Z,101140.73
2019-04-20T07:42:04.515Z,101142.25
2019-04-20T07:44:01.158Z,101142.90
2019-04-20T07:45:55.940Z,101150.04
2019-04-20T07:48:13.696Z,101151.63
2019-04-20T07:50:13.210Z,101156.07
2019-04-20T07:52:04.370Z,101162.72
2019-04-20T07:54:40.161Z,101160.44
2019-04-20T07:56:42.531Z,101158.39
2019-04-20T07:58:35.737Z,101158.97
2019-04-20T08:01:09.039Z,101163.70
2019-04-20T08:03:26.528Z,101165.92
2019-04-20T08:05:24.594Z,101168.57
2019-04-20T08:07:17.880Z,101168.67
2019-04-20T08:09:34.905Z,101164.22
2019-04-20T08:11:55.500Z,101161.20
2019-04-20T08:14:08.732Z,101164.86
2019-04-20T08:16:20.368Z,101160.88
2019-04-20T08:18:27.180Z,101162.45
2019-04-20T08:20:36.346Z,101153.02
2019-04-20T08:22:42.197Z,101154.55
2019-04-20T08:24:42.936Z,101154.06
2019-04-20T08:26:45.380Z,101152.38
2019-04-20T08:28:55.214Z,101143.73
2019-04-20T08:31:19.584Z,101143.58
2019-04-20T08:33:45.139Z,101143.13
2019-04-20T08:35:52.569Z,101138.73
2019-04-20T08:38:19.909Z,101137.66
2019-04-20T08:40:07.482Z,101135.53
2019-04-20T08:42:16.282Z,101135.39
2019-04-20T08:44:46.942Z,101135.59
2019-04-20T08:46:37.814Z,101136.25
2019-04-20T08:48:40.880Z,101129.47
2019-04-20T08:50:50.682Z,101123.75
2019-04-20T08:55:07.635Z,101125.11
2019-04-20T08:56:57.107Z,101121.88
2019-04-20T08:59:02.297Z,101130.30
2019-04-20T09:01:14.084Z,101122.44
2019-04-20T09:03:25.380Z,101116.22
2019-04-20T09:05:39.931Z,101119.31
2019-04-20T09:07:50.106Z,101112.66
2019-04-20T09:10:10.100Z,101109.88
2019-04-20T09:12:13.567Z,101111.84
2019-04-20T09:14:21.421Z,101109.09
2019-04-20T09:16:38.786Z,101103.78
2019-04-20T09:18:47.763Z,101102.05
2019-04-20T09:20:58.462Z,101104.36
2019-04-20T09:23:21.576Z,101112.89
2019-04-20T09:27:38.383Z,101100.47
2019-04-20T09:29:54.627Z,101099.67
2019-04-20T09:32:06.731Z,101093.48
2019-04-20T09:34:16.127Z,101092.92
2019-04-20T09:36:40.541Z,101083.06
2019-04-20T09:38:47.860Z,101086.82
2019-04-20T09:41:09.128Z,101083.56
2019-04-20T09:43:02.224Z,101081.06
2019-04-20T09:45:18.109Z,101086.87
2019-04-20T09:47:27.453Z,101081.73
2019-04-20T09:49:40.230Z,101077.72
2019-04-20T09:51:50.591Z,101082.62
2019-04-20T09:53:54.993Z,101076.77
2019-04-20T09:56:14.623Z,101072.25
2019-04-20T09:58:21.309Z,101068.21
2019-04-20T10:00:37.171Z,101073.16
2019-04-20T10:02:32.813Z,101065.07
2019-04-20T10:04:37.605Z,101061.85
2019-04-20T10:06:45.565Z,101064.53
2019-04-20T10:08:56.304Z,101065.73
2019-04-20T10:11:01.517Z,101062.62
2019-04-20T10:13:09.178Z,101066.34
2019-04-20T10:15:20.971Z,101061.98
2019-04-20T10:17:27.076Z,101054.86
2019-04-20T10:19:35.707Z,101058.82
2019-04-20T10:21:41.585Z,101057.41
2019-04-20T10:23:48.426Z,101059.85
2019-04-20T10:25:56.429Z,101052.60
2019-04-20T10:28:03.477Z,101049.05
2019-04-20T10:30:10.951Z,101048.89
2019-04-20T10:32:17.976Z,101047.45
2019-04-20T10:34:26.433Z,101051.90
2019-04-20T10:36:39.585Z,101040.45
2019-04-20T10:38:46.591Z,101028.36
2019-04-20T10:41:03.306Z,101034.92
2019-04-20T10:43:03.139Z,101030.75
2019-04-20T10:45:10.909Z,101032.23
2019-04-20T10:47:18.876Z,101029.65
2019-04-20T10:49:27.066Z,101026.45
2019-04-20T10:51:33.849Z,101024.14
2019-04-20T10:53:40.553Z,101021.90
2019-04-20T10:55:47.444Z,101018.31
2019-04-20T10:57:55.482Z,101020.20
2019-04-20T11:00:03.710Z,101022.15
2019-04-20T11:02:12.167Z,101016.87
2019-04-20T11:04:18.883Z,101011.52
2019-04-20T11:06:26.818Z,101007.31
2019-04-20T11:08:34.849Z,101002.51
2019-04-20T11:10:55.469Z,101005.28
2019-04-20T11:12:53.308Z,101013.18
2019-04-20T11:15:00.642Z,101013.53
2019-04-20T11:17:08.667Z,101018.39
2019-04-20T11:19:15.736Z,101017.21
2019-04-20T11:21:24.494Z,101006.12
2019-04-20T11:23:32.011Z,101010.98
2019-04-20T11:25:39.774Z,101008.39
2019-04-20T11:27:47.984Z,100998.56
2019-04-20T11:29:55.992Z,100991.30
2019-04-20T11:32:03.170Z,100992.93
2019-04-20T11:34:10.317Z,100997.63
2019-04-20T11:36:17.215Z,100991.14
2019-04-20T11:38:24.085Z,100977.77
2019-04-20T11:40:31.045Z,100985.50
2019-04-20T11:42:37.701Z,100985.00
2019-04-20T11:44:44.821Z,100993.28
2019-04-20T11:46:52.536Z,100980.29
2019-04-20T11:48:59.585Z,100978.30
2019-04-20T11:51:07.449Z,100977.92
2019-04-20T11:53:15.304Z,100970.98
2019-04-20T11:55:22.412Z,100964.67
2019-04-20T11:57:29.330Z,100956.66
2019-04-20T11:59:37.136Z,100962.84
2019-04-20T12:02:05.897Z,100955.09
2019-04-20T12:04:27.158Z,100954.91
2019-04-20T12:06:23.151Z,100956.97
2019-04-20T12:08:32.153Z,100956.39
2019-04-20T12:10:39.357Z,100954.45
2019-04-20T12:12:50.222Z,100951.98
2019-04-20T12:14:54.819Z,100943.41
2019-04-20T12:17:03.776Z,100952.35
2019-04-20T12:19:10.734Z,100960.61
2019-04-20T12:21:18.728Z,100952.78
2019-04-20T12:23:26.486Z,100953.97
2019-04-20T12:25:35.918Z,100943.45
2019-04-20T12:27:49.713Z,100955.11
2019-04-20T12:29:51.960Z,100960.19
2019-04-20T12:32:02.248Z,100956.44
2019-04-20T12:34:08.459Z,100948.67
2019-04-20T12:36:16.345Z,100951.53
2019-04-20T12:38:23.220Z,100943.47
2019-04-20T12:40:30.166Z,100939.86
2019-04-20T12:42:37.108Z,100939.27
2019-04-20T12:44:43.839Z,100939.47
2019-04-20T12:46:51.895Z,100943.00
2019-04-20T12:48:59.789Z,100927.11
2019-04-20T12:51:07.822Z,100938.31
2019-04-20T12:53:14.877Z,100924.17
2019-04-20T12:55:22.855Z,100928.08
2019-04-20T12:57:29.669Z,100923.56
2019-04-20T12:59:36.338Z,100925.58
2019-04-20T13:01:43.744Z,100914.36
2019-04-20T13:03:51.648Z,100916.68
2019-04-20T13:05:58.491Z,100919.56
2019-04-20T13:08:06.187Z,100907.97
2019-04-20T13:10:15.844Z,100904.38
2019-04-20T13:12:23.502Z,100907.62
2019-04-20T13:15:00.319Z,100901.97
2019-04-20T13:17:08.313Z,100903.08
2019-04-20T13:19:15.210Z,100898.66
2019-04-20T13:21:22.986Z,100894.47
2019-04-20T13:23:31.017Z,100895.28
2019-04-20T13:25:38.906Z,100894.82
2019-04-20T13:27:47.045Z,100899.11
2019-04-20T13:29:54.686Z,100897.42
2019-04-20T13:32:02.714Z,100900.08
2019-04-20T13:34:11.473Z,100902.02
2019-04-20T13:36:18.168Z,100901.59
2019-04-20T13:38:25.819Z,100893.42
2019-04-20T13:40:33.432Z,100891.33
2019-04-20T13:42:41.411Z,100886.52
2019-04-20T13:44:50.685Z,100893.83
2019-04-20T13:46:58.527Z,100895.38
2019-04-20T13:49:06.926Z,100884.67
2019-04-20T13:51:14.724Z,100881.59
2019-04-20T13:53:21.651Z,100873.88
2019-04-20T13:55:30.141Z,100874.41
2019-04-20T13:57:39.963Z,100866.73
2019-04-20T13:59:52.140Z,100866.46
2019-04-20T14:02:00.848Z,100866.79
2019-04-20T14:04:12.751Z,100861.90
2019-04-20T14:06:22.389Z,100858.23
2019-04-20T14:08:29.717Z,100851.11
2019-04-20T14:10:37.672Z,100856.62
2019-04-20T14:12:55.442Z,100856.05
2019-04-20T14:14:53.268Z,100858.73
2019-04-20T14:17:01.214Z,100861.96
2019-04-20T14:19:09.191Z,100861.89
2019-04-20T14:21:16.347Z,100853.45
2019-04-20T14:23:23.281Z,100857.89
2019-04-20T14:25:31.176Z,100853.16
2019-04-20T14:27:39.056Z,100848.75
2019-04-20T14:29:46.457Z,100846.87
2019-04-20T14:31:53.124Z,100848.74
2019-04-20T14:33:59.877Z,100842.02
2019-04-20T14:36:06.648Z,100840.23
2019-04-20T14:38:13.313Z,100842.22
2019-04-20T14:40:21.992Z,100843.13
2019-04-20T14:42:36.475Z,100834.63
2019-04-20T14:44:39.480Z,100836.67
2019-04-20T14:46:47.552Z,100822.02
2019-04-20T14:48:54.630Z,100827.33
2019-04-20T14:51:01.587Z,100825.75
2019-04-20T14:53:09.482Z,100827.06
2019-04-20T14:55:19.415Z,100826.49
2019-04-20T14:57:27.539Z,100828.00
2019-04-20T14:59:36.058Z,100828.61
2019-04-20T15:01:56.769Z,100827.08
2019-04-20T15:04:12.849Z,100828.22
2019-04-20T15:06:13.724Z,100825.67
2019-04-20T15:08:22.829Z,100824.57
2019-04-20T15:10:31.100Z,100826.30
2019-04-20T15:12:47.351Z,100828.31
2019-04-20T15:14:46.834Z,100829.81
2019-04-20T15:16:53.701Z,100829.42
2019-04-20T15:19:00.182Z,100827.72
2019-04-20T15:21:09.341Z,100823.23
2019-04-20T15:23:19.406Z,100827.17
2019-04-20T15:25:27.397Z,100827.08
2019-04-20T15:27:35.204Z,100820.49
2019-04-20T15:29:42.244Z,100817.98
2019-04-20T15:31:50.105Z,100815.30
2019-04-20T15:33:57.109Z,100822.48
2019-04-20T15:36:04.264Z,100814.05
2019-04-20T15:38:11.268Z,100815.06
2019-04-20T15:40:19.334Z,100817.30
2019-04-20T15:42:27.499Z,100810.20
2019-04-20T15:44:35.578Z,100809.42
2019-04-20T15:46:43.507Z,100805.48
2019-04-20T15:48:50.378Z,100799.34
2019-04-20T15:50:58.875Z,100802.50
2019-04-20T15:53:06.009Z,100797.66
2019-04-20T15:55:22.624Z,100796.37
2019-04-20T15:57:27.630Z,100793.25
2019-04-20T15:59:32.982Z,100790.61
2019-04-20T16:01:47.270Z,100795.58
2019-04-20T16:03:57.236Z,100794.31
2019-04-20T16:06:07.329Z,100789.90
2019-04-20T16:08:16.275Z,100786.81
2019-04-20T16:10:23.342Z,100784.62
2019-04-20T16:12:31.085Z,100785.13
2019-04-20T16:14:39.528Z,100783.36
2019-04-20T16:16:46.634Z,100784.72
2019-04-20T16:18:54.904Z,100781.16
2019-04-20T16:21:07.872Z,100783.44
2019-04-20T16:23:10.372Z,100780.02
2019-04-20T16:25:21.589Z,100774.77
2019-04-20T16:27:28.077Z,100777.95
2019-04-20T16:29:37.767Z,100771.34
2019-04-20T16:31:48.108Z,100773.14
2019-04-20T16:33:56.465Z,100772.72
2019-04-20T16:36:02.608Z,100768.78
2019-04-20T16:38:10.723Z,100773.72
2019-04-20T16:40:17.796Z,100767.50
2019-04-20T16:42:24.527Z,100764.39
2019-04-20T16:44:31.419Z,100769.81
2019-04-20T16:46:38.403Z,100768.93
2019-04-20T16:48:46.280Z,100763.62
2019-04-20T16:50:55.180Z,100765.45
2019-04-20T16:53:01.317Z,100763.26
2019-04-20T16:55:11.280Z,100761.50
2019-04-20T16:57:17.713Z,100765.97
2019-04-20T16:59:24.787Z,100757.56
2019-04-20T17:01:31.773Z,100758.41
2019-04-20T17:03:49.296Z,100759.80
2019-04-20T17:05:49.750Z,100759.37
2019-04-20T17:07:57.403Z,100756.27
2019-04-20T17:10:07.500Z,100758.52
2019-04-20T17:12:15.419Z,100754.52
2019-04-20T17:14:23.740Z,100757.25
2019-04-20T17:16:31.655Z,100756.81
2019-04-20T17:18:39.346Z,100759.96
2019-04-20T17:20:46.585Z,100762.20
2019-04-20T17:22:54.268Z,100759.14
2019-04-20T17:25:01.838Z,100768.95
2019-04-20T17:27:10.863Z,100767.20
2019-04-20T17:29:22.120Z,100765.48
2019-04-20T17:31:31.550Z,100756.16
2019-04-20T17:33:50.492Z,100762.87
2019-04-20T17:35:59.116Z,100758.48
2019-04-20T17:37:58.384Z,100751.84
2019-04-20T17:40:27.179Z,100755.90
2019-04-20T17:42:32.451Z,100755.48
2019-04-20T17:44:36.105Z,100757.31
2019-04-20T17:46:41.936Z,100750.25
2019-04-20T17:48:59.698Z,100755.59
2019-04-20T17:51:15.655Z,100757.42
2019-04-20T17:53:08.919Z,100753.47
2019-04-20T17:55:32.248Z,100760.14
2019-04-20T17:57:33.579Z,100754.84
2019-04-20T17:59:44.824Z,100753.07
2019-04-20T18:02:05.450Z,100756.63
2019-04-20T18:04:31.074Z,100762.87
2019-04-20T18:06:28.906Z,100757.09
2019-04-20T18:08:36.933Z,100761.11
2019-04-20T18:10:44.123Z,100760.66
2019-04-20T18:12:43.955Z,100767.78
2019-04-20T18:14:58.454Z,100762.00
2019-04-20T18:17:21.473Z,100771.77
2019-04-20T18:19:25.691Z,100778.41
2019-04-20T18:21:34.873Z,100770.89
2019-04-20T18:23:46.261Z,100777.09
2019-04-20T18:26:15.234Z,100781.52
2019-04-20T18:28:13.802Z,100771.78
2019-04-20T18:30:27.435Z,100775.32
2019-04-20T18:32:38.286Z,100777.97
2019-04-20T18:34:54.139Z,100774.84
2019-04-20T18:36:56.387Z,100781.52
2019-04-20T18:39:07.975Z,100785.50
2019-04-20T18:41:23.130Z,100781.03
2019-04-20T18:43:23.952Z,100783.27
2019-04-20T18:45:48.129Z,100781.92
2019-04-20T18:48:03.979Z,100782.80
2019-04-20T18:49:58.554Z,100778.80
2019-04-20T18:51:57.768Z,100780.59
2019-04-20T18:54:08.310Z,100780.56
2019-04-20T18:56:19.028Z,100778.28
2019-04-20T18:58:22.848Z,100783.63
2019-04-20T19:00:33.746Z,100781.39
2019-04-20T19:02:42.878Z,100776.04
2019-04-20T19:04:47.982Z,100777.35
2019-04-20T19:06:56.058Z,100777.80
2019-04-20T19:09:09.461Z,100779.54
2019-04-20T19:11:17.821Z,100778.20
2019-04-20T19:13:34.156Z,100775.50
2019-04-20T19:16:09.334Z,100769.72
2019-04-20T19:18:17.242Z,100776.76
2019-04-20T19:20:16.057Z,100773.63
2019-04-20T19:22:23.931Z,100765.16
2019-04-20T19:24:33.561Z,100770.47
2019-04-20T19:26:46.657Z,100773.08
2019-04-20T19:28:53.895Z,100767.75
2019-04-20T19:31:11.437Z,100774.78
2019-04-20T19:33:24.623Z,100775.66
2019-04-20T19:35:30.855Z,100773.83
2019-04-20T19:37:31.151Z,100768.91
2019-04-20T19:39:50.980Z,100774.20
2019-04-20T19:41:51.701Z,100773.27
2019-04-20T19:44:03.999Z,100774.56
2019-04-20T19:46:39.286Z,100764.82
2019-04-20T19:48:21.989Z,100768.30
2019-04-20T19:50:54.707Z,100771.38
2019-04-20T19:52:51.642Z,100770.48
2019-04-20T19:54:56.860Z,100774.03
2019-04-20T19:56:58.559Z,100774.47
2019-04-20T19:59:07.165Z,100775.34
2019-04-20T20:01:03.632Z,100780.25
2019-04-20T20:03:10.367Z,100775.83
2019-04-20T20:05:19.297Z,100780.75
2019-04-20T20:07:32.140Z,100777.64
2019-04-20T20:09:41.829Z,100774.11
2019-04-20T20:11:46.785Z,100779.42
2019-04-20T20:13:56.834Z,100780.33
2019-04-20T20:16:10.538Z,100776.80
2019-04-20T20:18:30.932Z,100777.69
2019-04-20T20:20:44.142Z,100779.89
2019-04-20T20:22:37.767Z,100771.47
2019-04-20T20:24:38.904Z,100771.91
2019-04-20T20:26:52.663Z,100775.02
2019-04-20T20:29:09.294Z,100775.00
2019-04-20T20:31:17.141Z,100780.70
2019-04-20T20:33:32.781Z,100782.43
2019-04-20T20:35:25.985Z,100791.23
2019-04-20T20:37:39.188Z,100783.69
2019-04-20T20:39:42.124Z,100791.62
2019-04-20T20:41:57.823Z,100787.16
2019-04-20T20:44:03.665Z,100789.34
2019-04-20T20:46:18.516Z,100786.66
2019-04-20T20:48:29.783Z,100783.10
2019-04-20T20:50:41.066Z,100788.41
2019-04-20T20:52:47.023Z,100786.17
2019-04-20T20:54:49.499Z,100786.59
2019-04-20T20:56:55.590Z,100783.02
2019-04-20T20:59:03.992Z,100786.97
2019-04-20T21:01:14.422Z,100786.47
2019-04-20T21:03:22.186Z,100784.69
2019-04-20T21:05:21.948Z,100789.95
2019-04-20T21:07:28.909Z,100794.80
2019-04-20T21:09:35.591Z,100793.44
2019-04-20T21:11:42.392Z,100792.55
2019-04-20T21:13:52.129Z,100788.09
2019-04-20T21:16:03.490Z,100789.84
2019-04-20T21:18:29.410Z,100786.77
2019-04-20T21:20:38.235Z,100787.20
2019-04-20T21:22:46.661Z,100780.53
2019-04-20T21:24:35.716Z,100781.40
2019-04-20T21:26:44.228Z,100781.81
2019-04-20T21:28:52.255Z,100771.19
2019-04-20T21:31:08.305Z,100776.91
2019-04-20T21:33:09.318Z,100774.25
2019-04-20T21:35:16.527Z,100771.56
2019-04-20T21:37:27.043Z,100770.23
2019-04-20T21:39:43.669Z,100768.91
2019-04-20T21:41:50.939Z,100769.77
2019-04-20T21:43:49.927Z,100763.98
2019-04-20T21:46:01.765Z,100770.10
2019-04-20T21:48:10.011Z,100763.47
2019-04-20T21:50:34.174Z,100761.19
2019-04-20T21:52:31.744Z,100761.10
2019-04-20T21:54:30.006Z,100757.55
2019-04-20T21:56:38.342Z,100764.56
2019-04-20T21:58:51.372Z,100757.03
2019-04-20T22:01:10.915Z,100758.78
2019-04-20T22:03:09.856Z,100760.55
2019-04-20T22:05:13.661Z,100757.92
2019-04-20T22:07:20.747Z,100751.73
2019-04-20T22:09:34.554Z,100751.27
2019-04-20T22:11:37.924Z,100753.92
2019-04-20T22:13:47.422Z,100752.19
2019-04-20T22:15:58.575Z,100745.52
2019-04-20T22:18:07.958Z,100748.16
2019-04-20T22:20:22.736Z,100755.65
2019-04-20T22:22:39.784Z,100747.25
2019-04-20T22:24:42.147Z,100744.98
2019-04-20T22:26:51.384Z,100749.80
2019-04-20T22:28:44.615Z,100751.08
2019-04-20T22:30:51.591Z,100739.14
2019-04-20T22:33:00.982Z,100736.48
2019-04-20T22:35:12.597Z,100731.11
2019-04-20T22:37:22.981Z,100734.17
2019-04-20T22:39:39.082Z,100727.02
2019-04-20T22:41:40.954Z,100726.56
2019-04-20T22:43:50.422Z,100724.30
2019-04-20T22:45:57.298Z,100727.79
2019-04-20T22:48:08.332Z,100723.78
2019-04-20T22:50:25.485Z,100725.92
2019-04-20T22:52:34.893Z,100726.78
2019-04-20T22:54:47.805Z,100720.98
2019-04-20T22:56:50.907Z,100717.39
2019-04-20T22:58:56.339Z,100716.03
2019-04-20T23:01:01.016Z,100721.70
2019-04-20T23:03:03.019Z,100708.84
2019-04-20T23:05:10.942Z,100712.75
2019-04-20T23:07:18.833Z,100712.22
2019-04-20T23:09:26.800Z,100705.98
2019-04-20T23:11:35.316Z,100706.83
2019-04-20T23:13:44.965Z,100712.94
2019-04-20T23:15:55.400Z,100704.94
2019-04-20T23:18:00.074Z,100704.02
2019-04-20T23:20:15.139Z,100700.49
2019-04-20T23:22:17.845Z,100694.25
2019-04-20T23:24:24.854Z,100691.56
2019-04-20T23:26:36.824Z,100688.45
2019-04-20T23:28:46.901Z,100685.32
2019-04-20T23:30:51.904Z,100681.77
2019-04-20T23:32:57.870Z,100678.63
2019-04-20T23:35:11.877Z,100680.82
2019-04-20T23:37:20.403Z,100678.61
2019-04-20T23:39:29.085Z,100670.19
2019-04-20T23:41:31.621Z,100671.10
2019-04-20T23:43:49.313Z,100668.86
2019-04-20T23:46:16.998Z,100662.66
2019-04-20T23:48:30.478Z,100671.91
2019-04-20T23:50:47.578Z,100667.48
2019-04-20T23:53:01.349Z,100654.23
2019-04-20T23:54:58.142Z,100663.95
2019-04-20T23:56:57.754Z,100662.12
2019-04-20T23:59:04.688Z,100661.20
